Ashland, Massachusetts
Current Conditions -  °F | °C
As of 3:53 PM on Saturday 25 Oct 2014 (Local Time) from KOWD Reporting Station
Clear Clear  
Wind Chill: 65°   Ceiling: Unl
Heat Index: 65°   Visibility: 10mi
Dew Point: 36°   Wind: 10mph
Humidity: 34%   Direction: 250°WSW
Pressure: 29.61"   Gusts: NA
Location:  42.26°N, 71.46°W
Report Text: KOWD 251953Z 25009KT 10SM CLR 18/02 A2961 RMK AO2 SLP025 T01830022
Loading
Personal Weather Stations






























Interactive Weather Map
Tropical Storm Tracking
New forecast layout! Learn more

10-Day Weather Forecast

Advertisements
Track Severe Weather on mobile